Laneview, Virginia
Current Conditions -  °F | °C
As of 1:55 AM on Thursday 23 Oct 2014 (Local Time) from KXSA Reporting Station
Overcast Overcast  
Wind Chill: 53°   Ceiling: 5500
Heat Index: 53°   Visibility: 10mi
Dew Point: 40°   Wind: 9mph
Humidity: 60%   Direction: 290°WNW
Pressure: 29.91"   Gusts: 20mph
Location:  37.76°N, 76.72°W
Report Text: KXSA 230555Z AUTO 29008G17KT 10SM OVC055 12/04 A2991 RMK AO2 T01190043 10125 20119 401280117
Loading
Personal Weather Stations






























Interactive Weather Map
Tropical Storm Tracking
New forecast layout! Learn more

10-Day Weather Forecast

Advertisements
Track Severe Weather on mobile